sensor_id;sensor_type;location;lat;lon;timestamp;P1;durP1;ratioP1;P2;durP2;ratioP2
8704;SDS011;4389;41.932;25.904;2023-04-08T00:01:50;18.23;;;14.93;;
8704;SDS011;4389;41.932;25.904;2023-04-08T00:04:18;17.00;;;15.03;;
8704;SDS011;4389;41.932;25.904;2023-04-08T00:06:45;15.13;;;13.53;;
8704;SDS011;4389;41.932;25.904;2023-04-08T00:09:12;18.83;;;15.40;;
8704;SDS011;4389;41.932;25.904;2023-04-08T00:11:40;21.03;;;16.73;;
8704;SDS011;4389;41.932;25.904;2023-04-08T00:14:07;19.73;;;16.47;;
8704;SDS011;4389;41.932;25.904;2023-04-08T00:16:34;16.40;;;13.80;;
8704;SDS011;4389;41.932;25.904;2023-04-08T00:19:00;20.93;;;15.20;;
8704;SDS011;4389;41.932;25.904;2023-04-08T00:21:27;18.30;;;14.53;;
8704;SDS011;4389;41.932;25.904;2023-04-08T00:23:55;31.57;;;25.10;;
8704;SDS011;4389;41.932;25.904;2023-04-08T00:26:22;23.80;;;18.27;;
8704;SDS011;4389;41.932;25.904;2023-04-08T00:28:51;21.93;;;17.17;;
8704;SDS011;4389;41.932;25.904;2023-04-08T00:31:18;23.23;;;18.33;;
8704;SDS011;4389;41.932;25.904;2023-04-08T00:33:46;20.70;;;17.03;;
8704;SDS011;4389;41.932;25.904;2023-04-08T00:36:12;20.83;;;16.23;;
8704;SDS011;4389;41.932;25.904;2023-04-08T00:38:39;20.53;;;16.57;;
8704;SDS011;4389;41.932;25.904;2023-04-08T00:41:06;22.93;;;16.00;;
8704;SDS011;4389;41.932;25.904;2023-04-08T00:43:33;19.63;;;16.60;;
8704;SDS011;4389;41.932;25.904;2023-04-08T00:46:01;24.00;;;18.20;;
8704;SDS011;4389;41.932;25.904;2023-04-08T00:48:28;22.37;;;16.67;;
8704;SDS011;4389;41.932;25.904;2023-04-08T00:50:55;21.40;;;17.10;;
8704;SDS011;4389;41.932;25.904;2023-04-08T00:53:22;20.67;;;17.23;;
8704;SDS011;4389;41.932;25.904;2023-04-08T00:55:49;21.30;;;16.03;;
8704;SDS011;4389;41.932;25.904;2023-04-08T00:58:16;19.63;;;16.17;;
8704;SDS011;4389;41.932;25.904;2023-04-08T01:00:45;19.53;;;14.77;;
8704;SDS011;4389;41.932;25.904;2023-04-08T01:03:23;17.33;;;14.40;;
8704;SDS011;4389;41.932;25.904;2023-04-08T01:05:59;17.43;;;15.60;;
8704;SDS011;4389;41.932;25.904;2023-04-08T01:08:34;27.03;;;21.83;;
8704;SDS011;4389;41.932;25.904;2023-04-08T01:11:05;19.93;;;14.67;;
8704;SDS011;4389;41.932;25.904;2023-04-08T01:13:38;19.17;;;16.13;;
8704;SDS011;4389;41.932;25.904;2023-04-08T01:16:07;18.17;;;15.80;;
8704;SDS011;4389;41.932;25.904;2023-04-08T01:18:39;20.93;;;16.20;;
8704;SDS011;4389;41.932;25.904;2023-04-08T01:21:08;28.17;;;17.00;;
8704;SDS011;4389;41.932;25.904;2023-04-08T01:23:38;21.77;;;16.07;;
8704;SDS011;4389;41.932;25.904;2023-04-08T01:26:19;22.17;;;17.70;;
8704;SDS011;4389;41.932;25.904;2023-04-08T01:28:49;24.63;;;17.90;;
8704;SDS011;4389;41.932;25.904;2023-04-08T01:31:18;21.87;;;17.43;;
8704;SDS011;4389;41.932;25.904;2023-04-08T01:33:47;26.10;;;17.40;;
8704;SDS011;4389;41.932;25.904;2023-04-08T01:36:16;21.50;;;17.17;;
8704;SDS011;4389;41.932;25.904;2023-04-08T01:38:45;22.97;;;17.73;;
8704;SDS011;4389;41.932;25.904;2023-04-08T01:41:15;22.13;;;18.37;;
8704;SDS011;4389;41.932;25.904;2023-04-08T01:43:43;23.87;;;18.07;;
8704;SDS011;4389;41.932;25.904;2023-04-08T01:46:11;19.23;;;16.53;;
8704;SDS011;4389;41.932;25.904;2023-04-08T01:48:39;19.33;;;15.57;;
8704;SDS011;4389;41.932;25.904;2023-04-08T01:51:07;19.97;;;16.30;;
8704;SDS011;4389;41.932;25.904;2023-04-08T01:53:35;21.27;;;17.23;;
8704;SDS011;4389;41.932;25.904;2023-04-08T01:56:04;17.87;;;15.93;;
8704;SDS011;4389;41.932;25.904;2023-04-08T01:58:36;19.90;;;17.37;;
8704;SDS011;4389;41.932;25.904;2023-04-08T02:01:10;25.80;;;18.33;;
8704;SDS011;4389;41.932;25.904;2023-04-08T02:03:40;28.80;;;17.73;;
8704;SDS011;4389;41.932;25.904;2023-04-08T02:06:09;20.33;;;17.13;;
8704;SDS011;4389;41.932;25.904;2023-04-08T02:08:36;23.90;;;18.87;;
8704;SDS011;4389;41.932;25.904;2023-04-08T02:11:03;22.63;;;17.20;;
8704;SDS011;4389;41.932;25.904;2023-04-08T02:13:30;19.90;;;16.50;;
8704;SDS011;4389;41.932;25.904;2023-04-08T02:16:01;22.93;;;18.03;;
8704;SDS011;4389;41.932;25.904;2023-04-08T02:18:32;23.23;;;16.90;;
8704;SDS011;4389;41.932;25.904;2023-04-08T02:21:02;20.67;;;16.10;;
8704;SDS011;4389;41.932;25.904;2023-04-08T02:23:35;26.67;;;18.27;;
8704;SDS011;4389;41.932;25.904;2023-04-08T02:26:05;25.20;;;17.70;;
8704;SDS011;4389;41.932;25.904;2023-04-08T02:28:35;21.80;;;17.17;;
8704;SDS011;4389;41.932;25.904;2023-04-08T02:31:04;25.00;;;19.20;;
8704;SDS011;4389;41.932;25.904;2023-04-08T02:33:33;22.33;;;17.93;;
8704;SDS011;4389;41.932;25.904;2023-04-08T02:36:01;24.63;;;20.57;;
8704;SDS011;4389;41.932;25.904;2023-04-08T02:38:29;27.07;;;17.67;;
8704;SDS011;4389;41.932;25.904;2023-04-08T02:40:56;25.20;;;18.93;;
8704;SDS011;4389;41.932;25.904;2023-04-08T02:43:23;22.63;;;19.63;;
8704;SDS011;4389;41.932;25.904;2023-04-08T02:45:56;23.43;;;19.77;;
8704;SDS011;4389;41.932;25.904;2023-04-08T02:48:24;25.73;;;20.40;;
8704;SDS011;4389;41.932;25.904;2023-04-08T02:50:51;24.43;;;20.10;;
8704;SDS011;4389;41.932;25.904;2023-04-08T02:53:18;30.13;;;21.50;;
8704;SDS011;4389;41.932;25.904;2023-04-08T02:55:45;29.77;;;20.30;;
8704;SDS011;4389;41.932;25.904;2023-04-08T02:58:12;25.63;;;22.30;;
8704;SDS011;4389;41.932;25.904;2023-04-08T03:00:38;33.10;;;20.57;;
8704;SDS011;4389;41.932;25.904;2023-04-08T03:03:05;29.17;;;20.77;;
8704;SDS011;4389;41.932;25.904;2023-04-08T03:05:33;26.10;;;20.30;;
8704;SDS011;4389;41.932;25.904;2023-04-08T03:08:00;33.90;;;20.10;;
8704;SDS011;4389;41.932;25.904;2023-04-08T03:10:27;28.30;;;22.20;;
8704;SDS011;4389;41.932;25.904;2023-04-08T03:12:54;30.00;;;23.23;;
8704;SDS011;4389;41.932;25.904;2023-04-08T03:15:20;23.87;;;20.70;;
8704;SDS011;4389;41.932;25.904;2023-04-08T03:17:47;29.63;;;20.20;;
8704;SDS011;4389;41.932;25.904;2023-04-08T03:20:14;27.47;;;22.23;;
8704;SDS011;4389;41.932;25.904;2023-04-08T03:22:43;31.10;;;21.93;;
8704;SDS011;4389;41.932;25.904;2023-04-08T03:25:10;25.70;;;21.87;;
8704;SDS011;4389;41.932;25.904;2023-04-08T03:27:36;26.63;;;21.00;;
8704;SDS011;4389;41.932;25.904;2023-04-08T03:30:04;24.63;;;16.97;;
8704;SDS011;4389;41.932;25.904;2023-04-08T03:32:31;19.17;;;14.93;;
8704;SDS011;4389;41.932;25.904;2023-04-08T03:34:58;17.97;;;14.40;;
8704;SDS011;4389;41.932;25.904;2023-04-08T03:37:25;17.53;;;14.60;;
8704;SDS011;4389;41.932;25.904;2023-04-08T03:39:54;28.30;;;15.00;;
8704;SDS011;4389;41.932;25.904;2023-04-08T03:42:21;23.93;;;14.27;;
8704;SDS011;4389;41.932;25.904;2023-04-08T03:44:48;19.90;;;16.00;;
8704;SDS011;4389;41.932;25.904;2023-04-08T03:47:15;23.57;;;15.77;;
8704;SDS011;4389;41.932;25.904;2023-04-08T03:49:42;19.37;;;14.80;;
8704;SDS011;4389;41.932;25.904;2023-04-08T03:52:09;19.17;;;15.87;;
8704;SDS011;4389;41.932;25.904;2023-04-08T03:54:35;20.33;;;15.97;;
8704;SDS011;4389;41.932;25.904;2023-04-08T03:57:04;26.50;;;17.70;;
8704;SDS011;4389;41.932;25.904;2023-04-08T03:59:30;21.57;;;16.17;;
8704;SDS011;4389;41.932;25.904;2023-04-08T04:01:58;20.03;;;15.63;;
8704;SDS011;4389;41.932;25.904;2023-04-08T04:04:25;25.30;;;16.57;;
8704;SDS011;4389;41.932;25.904;2023-04-08T04:06:52;28.90;;;20.23;;
8704;SDS011;4389;41.932;25.904;2023-04-08T04:09:18;23.07;;;17.77;;
8704;SDS011;4389;41.932;25.904;2023-04-08T04:11:45;28.30;;;17.63;;
8704;SDS011;4389;41.932;25.904;2023-04-08T04:14:13;25.67;;;16.63;;
8704;SDS011;4389;41.932;25.904;2023-04-08T04:16:40;31.03;;;17.50;;
8704;SDS011;4389;41.932;25.904;2023-04-08T04:19:07;28.40;;;16.37;;
8704;SDS011;4389;41.932;25.904;2023-04-08T04:21:34;24.20;;;17.73;;
8704;SDS011;4389;41.932;25.904;2023-04-08T04:24:00;33.97;;;18.67;;
8704;SDS011;4389;41.932;25.904;2023-04-08T04:26:27;20.77;;;18.33;;
8704;SDS011;4389;41.932;25.904;2023-04-08T04:28:54;19.47;;;17.40;;
8704;SDS011;4389;41.932;25.904;2023-04-08T04:31:22;31.13;;;17.13;;
8704;SDS011;4389;41.932;25.904;2023-04-08T04:33:51;21.37;;;16.13;;
8704;SDS011;4389;41.932;25.904;2023-04-08T04:36:18;22.47;;;15.67;;
8704;SDS011;4389;41.932;25.904;2023-04-08T04:38:45;25.73;;;18.73;;
8704;SDS011;4389;41.932;25.904;2023-04-08T04:41:11;16.10;;;14.40;;
8704;SDS011;4389;41.932;25.904;2023-04-08T04:43:38;20.60;;;15.10;;
8704;SDS011;4389;41.932;25.904;2023-04-08T04:46:05;18.80;;;16.63;;
8704;SDS011;4389;41.932;25.904;2023-04-08T04:48:34;24.60;;;18.80;;
8704;SDS011;4389;41.932;25.904;2023-04-08T04:51:01;18.70;;;15.13;;
8704;SDS011;4389;41.932;25.904;2023-04-08T04:53:28;28.47;;;21.03;;
8704;SDS011;4389;41.932;25.904;2023-04-08T04:55:55;21.70;;;17.77;;
8704;SDS011;4389;41.932;25.904;2023-04-08T04:58:22;24.57;;;18.23;;
8704;SDS011;4389;41.932;25.904;2023-04-08T05:00:49;29.67;;;17.97;;
8704;SDS011;4389;41.932;25.904;2023-04-08T05:03:16;26.73;;;18.93;;
8704;SDS011;4389;41.932;25.904;2023-04-08T05:05:47;21.80;;;16.77;;
8704;SDS011;4389;41.932;25.904;2023-04-08T05:08:16;26.37;;;17.80;;
8704;SDS011;4389;41.932;25.904;2023-04-08T05:10:43;27.67;;;22.53;;
8704;SDS011;4389;41.932;25.904;2023-04-08T05:13:10;26.27;;;20.33;;
8704;SDS011;4389;41.932;25.904;2023-04-08T05:15:37;26.23;;;18.43;;
8704;SDS011;4389;41.932;25.904;2023-04-08T05:18:04;21.23;;;18.57;;
8704;SDS011;4389;41.932;25.904;2023-04-08T05:20:31;27.77;;;19.53;;
8704;SDS011;4389;41.932;25.904;2023-04-08T05:22:59;28.23;;;21.20;;
8704;SDS011;4389;41.932;25.904;2023-04-08T05:25:26;32.80;;;21.73;;
8704;SDS011;4389;41.932;25.904;2023-04-08T05:27:53;30.27;;;21.93;;
8704;SDS011;4389;41.932;25.904;2023-04-08T05:30:20;30.80;;;22.70;;
8704;SDS011;4389;41.932;25.904;2023-04-08T05:32:47;30.77;;;24.90;;
8704;SDS011;4389;41.932;25.904;2023-04-08T05:35:14;24.03;;;19.10;;
8704;SDS011;4389;41.932;25.904;2023-04-08T05:37:40;26.63;;;19.13;;
8704;SDS011;4389;41.932;25.904;2023-04-08T05:40:09;28.67;;;19.63;;
8704;SDS011;4389;41.932;25.904;2023-04-08T05:42:36;23.93;;;17.73;;
8704;SDS011;4389;41.932;25.904;2023-04-08T05:45:03;47.63;;;20.30;;
8704;SDS011;4389;41.932;25.904;2023-04-08T05:47:31;40.43;;;20.23;;
8704;SDS011;4389;41.932;25.904;2023-04-08T05:49:58;28.50;;;18.40;;
8704;SDS011;4389;41.932;25.904;2023-04-08T05:52:25;20.97;;;17.07;;
8704;SDS011;4389;41.932;25.904;2023-04-08T05:54:52;21.40;;;18.13;;
8704;SDS011;4389;41.932;25.904;2023-04-08T05:57:20;22.73;;;17.50;;
8704;SDS011;4389;41.932;25.904;2023-04-08T05:59:47;19.67;;;17.00;;
8704;SDS011;4389;41.932;25.904;2023-04-08T06:02:14;21.30;;;17.30;;
8704;SDS011;4389;41.932;25.904;2023-04-08T06:04:40;19.50;;;17.37;;
8704;SDS011;4389;41.932;25.904;2023-04-08T06:07:07;18.30;;;16.40;;
8704;SDS011;4389;41.932;25.904;2023-04-08T06:09:34;25.33;;;17.33;;
8704;SDS011;4389;41.932;25.904;2023-04-08T06:12:02;19.90;;;16.27;;
8704;SDS011;4389;41.932;25.904;2023-04-08T06:14:30;22.47;;;16.87;;
8704;SDS011;4389;41.932;25.904;2023-04-08T06:16:57;21.23;;;16.80;;
8704;SDS011;4389;41.932;25.904;2023-04-08T06:19:25;21.33;;;18.73;;
8704;SDS011;4389;41.932;25.904;2023-04-08T06:21:51;29.10;;;18.20;;
8704;SDS011;4389;41.932;25.904;2023-04-08T06:24:23;19.60;;;16.90;;
8704;SDS011;4389;41.932;25.904;2023-04-08T06:26:50;20.93;;;17.17;;
8704;SDS011;4389;41.932;25.904;2023-04-08T06:29:17;25.27;;;20.30;;
8704;SDS011;4389;41.932;25.904;2023-04-08T06:31:46;22.87;;;18.60;;
8704;SDS011;4389;41.932;25.904;2023-04-08T06:34:13;28.07;;;20.30;;
8704;SDS011;4389;41.932;25.904;2023-04-08T06:36:39;23.37;;;19.20;;
8704;SDS011;4389;41.932;25.904;2023-04-08T06:39:06;25.00;;;18.03;;
8704;SDS011;4389;41.932;25.904;2023-04-08T06:41:33;28.93;;;19.97;;
8704;SDS011;4389;41.932;25.904;2023-04-08T06:44:00;22.87;;;17.47;;
8704;SDS011;4389;41.932;25.904;2023-04-08T06:46:27;22.07;;;17.33;;
8704;SDS011;4389;41.932;25.904;2023-04-08T06:48:56;20.30;;;15.53;;
8704;SDS011;4389;41.932;25.904;2023-04-08T06:51:22;20.30;;;16.30;;
8704;SDS011;4389;41.932;25.904;2023-04-08T06:53:50;47.17;;;19.10;;
8704;SDS011;4389;41.932;25.904;2023-04-08T06:56:17;23.97;;;16.83;;
8704;SDS011;4389;41.932;25.904;2023-04-08T06:58:45;28.53;;;17.07;;
8704;SDS011;4389;41.932;25.904;2023-04-08T07:01:12;25.83;;;18.13;;
8704;SDS011;4389;41.932;25.904;2023-04-08T07:03:40;26.43;;;16.60;;
8704;SDS011;4389;41.932;25.904;2023-04-08T07:06:08;24.67;;;16.47;;
8704;SDS011;4389;41.932;25.904;2023-04-08T07:08:35;18.17;;;14.90;;
8704;SDS011;4389;41.932;25.904;2023-04-08T07:11:03;19.90;;;16.27;;
8704;SDS011;4389;41.932;25.904;2023-04-08T07:13:29;25.20;;;18.13;;
8704;SDS011;4389;41.932;25.904;2023-04-08T07:15:56;23.03;;;16.80;;
8704;SDS011;4389;41.932;25.904;2023-04-08T07:18:23;22.93;;;17.03;;
8704;SDS011;4389;41.932;25.904;2023-04-08T07:20:50;22.93;;;17.00;;
8704;SDS011;4389;41.932;25.904;2023-04-08T07:23:19;28.47;;;18.60;;
8704;SDS011;4389;41.932;25.904;2023-04-08T07:25:46;28.87;;;19.77;;
8704;SDS011;4389;41.932;25.904;2023-04-08T07:28:13;28.27;;;20.23;;
8704;SDS011;4389;41.932;25.904;2023-04-08T07:30:40;25.50;;;21.00;;
8704;SDS011;4389;41.932;25.904;2023-04-08T07:33:07;19.73;;;15.63;;
8704;SDS011;4389;41.932;25.904;2023-04-08T07:35:34;24.60;;;18.43;;
8704;SDS011;4389;41.932;25.904;2023-04-08T07:38:02;20.13;;;17.47;;
8704;SDS011;4389;41.932;25.904;2023-04-08T07:40:30;22.47;;;19.10;;
8704;SDS011;4389;41.932;25.904;2023-04-08T07:42:57;23.87;;;17.10;;
8704;SDS011;4389;41.932;25.904;2023-04-08T07:45:24;18.83;;;16.83;;
8704;SDS011;4389;41.932;25.904;2023-04-08T07:47:50;28.33;;;19.90;;
8704;SDS011;4389;41.932;25.904;2023-04-08T07:50:17;25.20;;;19.93;;
8704;SDS011;4389;41.932;25.904;2023-04-08T07:52:44;20.83;;;14.03;;
8704;SDS011;4389;41.932;25.904;2023-04-08T07:55:11;21.53;;;16.27;;
8704;SDS011;4389;41.932;25.904;2023-04-08T07:57:39;18.33;;;14.73;;
8704;SDS011;4389;41.932;25.904;2023-04-08T08:00:06;24.33;;;18.80;;
8704;SDS011;4389;41.932;25.904;2023-04-08T08:02:34;20.77;;;17.53;;
8704;SDS011;4389;41.932;25.904;2023-04-08T08:05:00;19.97;;;16.70;;
8704;SDS011;4389;41.932;25.904;2023-04-08T08:07:28;21.53;;;17.37;;
8704;SDS011;4389;41.932;25.904;2023-04-08T08:09:55;21.57;;;15.57;;
8704;SDS011;4389;41.932;25.904;2023-04-08T08:12:21;21.50;;;18.40;;
8704;SDS011;4389;41.932;25.904;2023-04-08T08:14:49;20.27;;;14.73;;
8704;SDS011;4389;41.932;25.904;2023-04-08T08:17:19;18.07;;;14.77;;
8704;SDS011;4389;41.932;25.904;2023-04-08T08:19:46;13.63;;;10.80;;
8704;SDS011;4389;41.932;25.904;2023-04-08T08:22:13;17.47;;;11.40;;
8704;SDS011;4389;41.932;25.904;2023-04-08T08:24:40;13.83;;;10.67;;
8704;SDS011;4389;41.932;25.904;2023-04-08T08:27:08;18.00;;;12.13;;
8704;SDS011;4389;41.932;25.904;2023-04-08T08:29:35;11.50;;;9.37;;
8704;SDS011;4389;41.932;25.904;2023-04-08T08:32:03;15.57;;;10.80;;
8704;SDS011;4389;41.932;25.904;2023-04-08T08:34:30;18.67;;;11.10;;
8704;SDS011;4389;41.932;25.904;2023-04-08T08:36:57;15.77;;;10.77;;
8704;SDS011;4389;41.932;25.904;2023-04-08T08:39:24;11.97;;;10.53;;
8704;SDS011;4389;41.932;25.904;2023-04-08T08:41:51;23.23;;;11.83;;
8704;SDS011;4389;41.932;25.904;2023-04-08T08:44:18;19.60;;;10.77;;
8704;SDS011;4389;41.932;25.904;2023-04-08T08:46:45;10.30;;;9.00;;
8704;SDS011;4389;41.932;25.904;2023-04-08T08:49:14;8.57;;;7.73;;
8704;SDS011;4389;41.932;25.904;2023-04-08T08:51:41;15.27;;;11.93;;
8704;SDS011;4389;41.932;25.904;2023-04-08T08:54:10;12.90;;;8.77;;
8704;SDS011;4389;41.932;25.904;2023-04-08T08:56:37;7.63;;;6.40;;
8704;SDS011;4389;41.932;25.904;2023-04-08T08:59:04;9.90;;;7.97;;
8704;SDS011;4389;41.932;25.904;2023-04-08T09:01:31;10.97;;;8.13;;
8704;SDS011;4389;41.932;25.904;2023-04-08T09:04:06;17.30;;;8.80;;
8704;SDS011;4389;41.932;25.904;2023-04-08T09:06:36;13.63;;;8.70;;
8704;SDS011;4389;41.932;25.904;2023-04-08T09:09:03;9.17;;;7.47;;
8704;SDS011;4389;41.932;25.904;2023-04-08T09:11:34;6.57;;;5.90;;
8704;SDS011;4389;41.932;25.904;2023-04-08T09:14:02;9.80;;;5.90;;
8704;SDS011;4389;41.932;25.904;2023-04-08T09:16:30;11.53;;;8.73;;
8704;SDS011;4389;41.932;25.904;2023-04-08T09:19:06;6.17;;;5.57;;
8704;SDS011;4389;41.932;25.904;2023-04-08T09:21:34;10.43;;;6.70;;
8704;SDS011;4389;41.932;25.904;2023-04-08T09:24:02;13.07;;;8.53;;
8704;SDS011;4389;41.932;25.904;2023-04-08T09:26:29;7.03;;;6.07;;
8704;SDS011;4389;41.932;25.904;2023-04-08T09:28:57;8.03;;;5.33;;
8704;SDS011;4389;41.932;25.904;2023-04-08T09:31:25;18.47;;;8.40;;
8704;SDS011;4389;41.932;25.904;2023-04-08T09:33:54;10.13;;;7.77;;
8704;SDS011;4389;41.932;25.904;2023-04-08T09:36:22;7.63;;;6.17;;
8704;SDS011;4389;41.932;25.904;2023-04-08T09:38:50;9.77;;;7.13;;
8704;SDS011;4389;41.932;25.904;2023-04-08T09:41:20;9.07;;;8.17;;
8704;SDS011;4389;41.932;25.904;2023-04-08T09:43:49;9.17;;;7.93;;
8704;SDS011;4389;41.932;25.904;2023-04-08T09:46:18;6.90;;;6.10;;
8704;SDS011;4389;41.932;25.904;2023-04-08T09:48:55;6.97;;;6.27;;
8704;SDS011;4389;41.932;25.904;2023-04-08T09:51:28;8.03;;;6.43;;
8704;SDS011;4389;41.932;25.904;2023-04-08T09:54:00;8.17;;;6.60;;
8704;SDS011;4389;41.932;25.904;2023-04-08T09:56:34;8.50;;;7.27;;
8704;SDS011;4389;41.932;25.904;2023-04-08T09:59:08;7.90;;;5.67;;
8704;SDS011;4389;41.932;25.904;2023-04-08T10:01:43;9.13;;;6.57;;
8704;SDS011;4389;41.932;25.904;2023-04-08T10:04:13;9.40;;;7.47;;
8704;SDS011;4389;41.932;25.904;2023-04-08T10:06:41;9.47;;;6.17;;
8704;SDS011;4389;41.932;25.904;2023-04-08T10:09:08;11.50;;;6.27;;
8704;SDS011;4389;41.932;25.904;2023-04-08T10:11:37;9.07;;;7.33;;
8704;SDS011;4389;41.932;25.904;2023-04-08T10:14:04;10.80;;;7.80;;
8704;SDS011;4389;41.932;25.904;2023-04-08T10:16:31;24.73;;;6.53;;
8704;SDS011;4389;41.932;25.904;2023-04-08T10:18:58;6.43;;;5.83;;
8704;SDS011;4389;41.932;25.904;2023-04-08T10:21:35;6.60;;;5.47;;
8704;SDS011;4389;41.932;25.904;2023-04-08T10:24:06;11.10;;;6.43;;
8704;SDS011;4389;41.932;25.904;2023-04-08T10:26:39;5.63;;;5.13;;
8704;SDS011;4389;41.932;25.904;2023-04-08T10:29:29;11.77;;;7.60;;
8704;SDS011;4389;41.932;25.904;2023-04-08T10:31:57;7.83;;;6.30;;
8704;SDS011;4389;41.932;25.904;2023-04-08T10:34:24;15.00;;;8.90;;
8704;SDS011;4389;41.932;25.904;2023-04-08T10:36:53;17.40;;;9.30;;
8704;SDS011;4389;41.932;25.904;2023-04-08T10:39:21;12.57;;;7.23;;
8704;SDS011;4389;41.932;25.904;2023-04-08T10:41:49;6.30;;;5.27;;
8704;SDS011;4389;41.932;25.904;2023-04-08T10:44:16;8.10;;;6.00;;
8704;SDS011;4389;41.932;25.904;2023-04-08T10:46:44;8.00;;;4.87;;
8704;SDS011;4389;41.932;25.904;2023-04-08T10:49:12;11.50;;;7.50;;
8704;SDS011;4389;41.932;25.904;2023-04-08T10:51:39;7.00;;;6.37;;
8704;SDS011;4389;41.932;25.904;2023-04-08T10:54:06;9.93;;;5.83;;
8704;SDS011;4389;41.932;25.904;2023-04-08T10:56:34;6.03;;;5.10;;
8704;SDS011;4389;41.932;25.904;2023-04-08T10:59:03;7.23;;;5.50;;
8704;SDS011;4389;41.932;25.904;2023-04-08T11:01:39;5.37;;;4.87;;
8704;SDS011;4389;41.932;25.904;2023-04-08T11:04:12;7.13;;;5.13;;
8704;SDS011;4389;41.932;25.904;2023-04-08T11:06:40;5.83;;;5.33;;
8704;SDS011;4389;41.932;25.904;2023-04-08T11:09:08;6.90;;;6.20;;
8704;SDS011;4389;41.932;25.904;2023-04-08T11:11:35;13.10;;;6.37;;
8704;SDS011;4389;41.932;25.904;2023-04-08T11:14:04;8.47;;;6.03;;
8704;SDS011;4389;41.932;25.904;2023-04-08T11:16:32;6.07;;;5.47;;
8704;SDS011;4389;41.932;25.904;2023-04-08T11:19:01;9.70;;;6.90;;
8704;SDS011;4389;41.932;25.904;2023-04-08T11:21:29;7.23;;;6.50;;
8704;SDS011;4389;41.932;25.904;2023-04-08T11:23:56;7.10;;;6.40;;
8704;SDS011;4389;41.932;25.904;2023-04-08T11:26:24;8.57;;;7.80;;
8704;SDS011;4389;41.932;25.904;2023-04-08T11:28:51;6.90;;;5.60;;
8704;SDS011;4389;41.932;25.904;2023-04-08T11:31:20;6.10;;;5.50;;
8704;SDS011;4389;41.932;25.904;2023-04-08T11:33:47;5.93;;;5.23;;
8704;SDS011;4389;41.932;25.904;2023-04-08T11:36:17;5.80;;;5.30;;
8704;SDS011;4389;41.932;25.904;2023-04-08T11:38:45;11.57;;;8.37;;
8704;SDS011;4389;41.932;25.904;2023-04-08T11:41:13;7.50;;;6.13;;
8704;SDS011;4389;41.932;25.904;2023-04-08T11:43:49;6.53;;;5.93;;
8704;SDS011;4389;41.932;25.904;2023-04-08T11:46:17;8.63;;;6.33;;
8704;SDS011;4389;41.932;25.904;2023-04-08T11:48:57;12.30;;;7.17;;
8704;SDS011;4389;41.932;25.904;2023-04-08T11:51:25;7.20;;;5.30;;
8704;SDS011;4389;41.932;25.904;2023-04-08T11:53:52;6.17;;;4.63;;
8704;SDS011;4389;41.932;25.904;2023-04-08T11:56:20;3.90;;;3.23;;
8704;SDS011;4389;41.932;25.904;2023-04-08T11:58:47;6.57;;;5.80;;
8704;SDS011;4389;41.932;25.904;2023-04-08T12:01:15;6.83;;;4.50;;
8704;SDS011;4389;41.932;25.904;2023-04-08T12:06:34;5.30;;;4.80;;
8704;SDS011;4389;41.932;25.904;2023-04-08T12:09:01;4.47;;;4.17;;
8704;SDS011;4389;41.932;25.904;2023-04-08T12:11:27;4.70;;;4.30;;
8704;SDS011;4389;41.932;25.904;2023-04-08T12:13:54;5.53;;;5.03;;
8704;SDS011;4389;41.932;25.904;2023-04-08T12:16:21;7.03;;;4.37;;
8704;SDS011;4389;41.932;25.904;2023-04-08T12:18:48;4.57;;;4.17;;
8704;SDS011;4389;41.932;25.904;2023-04-08T12:21:16;6.23;;;5.13;;
8704;SDS011;4389;41.932;25.904;2023-04-08T12:23:43;7.93;;;5.47;;
8704;SDS011;4389;41.932;25.904;2023-04-08T12:26:10;8.70;;;4.43;;
8704;SDS011;4389;41.932;25.904;2023-04-08T12:28:37;2.77;;;2.50;;
8704;SDS011;4389;41.932;25.904;2023-04-08T12:31:05;3.83;;;3.30;;
8704;SDS011;4389;41.932;25.904;2023-04-08T12:33:32;6.03;;;4.17;;
8704;SDS011;4389;41.932;25.904;2023-04-08T12:35:58;3.53;;;3.23;;
8704;SDS011;4389;41.932;25.904;2023-04-08T12:38:26;6.83;;;3.53;;
8704;SDS011;4389;41.932;25.904;2023-04-08T12:40:54;3.00;;;2.73;;
8704;SDS011;4389;41.932;25.904;2023-04-08T12:43:21;7.90;;;6.57;;
8704;SDS011;4389;41.932;25.904;2023-04-08T12:45:48;4.20;;;3.80;;
8704;SDS011;4389;41.932;25.904;2023-04-08T12:48:16;5.50;;;5.00;;
8704;SDS011;4389;41.932;25.904;2023-04-08T12:50:42;4.30;;;3.70;;
8704;SDS011;4389;41.932;25.904;2023-04-08T12:53:09;4.47;;;3.33;;
8704;SDS011;4389;41.932;25.904;2023-04-08T12:55:38;4.63;;;3.93;;
8704;SDS011;4389;41.932;25.904;2023-04-08T12:58:05;4.67;;;4.13;;
8704;SDS011;4389;41.932;25.904;2023-04-08T13:00:31;10.40;;;5.10;;
8704;SDS011;4389;41.932;25.904;2023-04-08T13:02:58;8.63;;;5.13;;
8704;SDS011;4389;41.932;25.904;2023-04-08T13:05:25;6.47;;;4.30;;
8704;SDS011;4389;41.932;25.904;2023-04-08T13:07:52;4.70;;;4.33;;
8704;SDS011;4389;41.932;25.904;2023-04-08T13:10:19;4.70;;;4.30;;
8704;SDS011;4389;41.932;25.904;2023-04-08T13:12:47;5.93;;;5.33;;
8704;SDS011;4389;41.932;25.904;2023-04-08T13:15:14;8.20;;;4.47;;
8704;SDS011;4389;41.932;25.904;2023-04-08T13:17:41;5.60;;;4.83;;
8704;SDS011;4389;41.932;25.904;2023-04-08T13:20:09;17.07;;;5.47;;
8704;SDS011;4389;41.932;25.904;2023-04-08T13:22:36;6.60;;;5.10;;
8704;SDS011;4389;41.932;25.904;2023-04-08T13:25:05;7.30;;;4.23;;
8704;SDS011;4389;41.932;25.904;2023-04-08T13:27:33;4.13;;;3.73;;
8704;SDS011;4389;41.932;25.904;2023-04-08T13:30:01;23.83;;;5.53;;
8704;SDS011;4389;41.932;25.904;2023-04-08T13:32:28;4.70;;;3.97;;
8704;SDS011;4389;41.932;25.904;2023-04-08T13:34:55;4.57;;;4.17;;
8704;SDS011;4389;41.932;25.904;2023-04-08T13:37:22;4.77;;;4.30;;
8704;SDS011;4389;41.932;25.904;2023-04-08T13:39:48;8.93;;;5.07;;
8704;SDS011;4389;41.932;25.904;2023-04-08T13:42:15;8.40;;;4.17;;
8704;SDS011;4389;41.932;25.904;2023-04-08T13:44:42;4.97;;;4.33;;
8704;SDS011;4389;41.932;25.904;2023-04-08T13:47:10;4.00;;;3.67;;
8704;SDS011;4389;41.932;25.904;2023-04-08T13:49:37;4.53;;;3.87;;
8704;SDS011;4389;41.932;25.904;2023-04-08T13:52:04;5.50;;;4.47;;
8704;SDS011;4389;41.932;25.904;2023-04-08T13:54:31;9.53;;;7.30;;
8704;SDS011;4389;41.932;25.904;2023-04-08T13:56:58;4.93;;;4.20;;
8704;SDS011;4389;41.932;25.904;2023-04-08T13:59:25;5.07;;;4.57;;
8704;SDS011;4389;41.932;25.904;2023-04-08T14:01:52;6.57;;;4.13;;
8704;SDS011;4389;41.932;25.904;2023-04-08T14:04:21;7.83;;;5.00;;
8704;SDS011;4389;41.932;25.904;2023-04-08T14:06:48;5.50;;;4.80;;
8704;SDS011;4389;41.932;25.904;2023-04-08T14:09:17;6.67;;;4.50;;
8704;SDS011;4389;41.932;25.904;2023-04-08T14:11:44;5.17;;;4.67;;
8704;SDS011;4389;41.932;25.904;2023-04-08T14:14:11;5.33;;;4.40;;
8704;SDS011;4389;41.932;25.904;2023-04-08T14:16:38;4.90;;;4.40;;
8704;SDS011;4389;41.932;25.904;2023-04-08T14:19:05;7.93;;;4.53;;
8704;SDS011;4389;41.932;25.904;2023-04-08T14:21:34;14.97;;;5.67;;
8704;SDS011;4389;41.932;25.904;2023-04-08T14:24:02;3.70;;;3.40;;
8704;SDS011;4389;41.932;25.904;2023-04-08T14:26:29;4.40;;;4.00;;
8704;SDS011;4389;41.932;25.904;2023-04-08T14:28:59;5.83;;;4.67;;
8704;SDS011;4389;41.932;25.904;2023-04-08T14:31:27;4.90;;;4.40;;
8704;SDS011;4389;41.932;25.904;2023-04-08T14:33:54;5.33;;;4.47;;
8704;SDS011;4389;41.932;25.904;2023-04-08T14:36:21;4.37;;;3.97;;
8704;SDS011;4389;41.932;25.904;2023-04-08T14:38:49;7.43;;;4.30;;
8704;SDS011;4389;41.932;25.904;2023-04-08T14:41:16;9.63;;;5.23;;
8704;SDS011;4389;41.932;25.904;2023-04-08T14:43:43;7.57;;;5.43;;
8704;SDS011;4389;41.932;25.904;2023-04-08T14:46:10;7.00;;;5.23;;
8704;SDS011;4389;41.932;25.904;2023-04-08T14:48:37;5.77;;;4.93;;
8704;SDS011;4389;41.932;25.904;2023-04-08T14:51:04;8.87;;;7.90;;